createdAt,value
2024-01-19T00:00:41.063Z,97970.72
2024-01-19T00:03:08.333Z,97959.09
2024-01-19T00:05:35.348Z,97975.53
2024-01-19T00:08:03.217Z,97976.03
2024-01-19T00:10:32.010Z,97987.31
2024-01-19T00:12:58.848Z,97995.28
2024-01-19T00:15:33.002Z,97995.16
2024-01-19T00:18:06.974Z,97998.75
2024-01-19T00:20:34.084Z,98020.22
2024-01-19T00:23:00.988Z,98021.16
2024-01-19T00:25:27.802Z,98041.00
2024-01-19T00:27:54.892Z,98044.72
2024-01-19T00:30:21.852Z,98050.25
2024-01-19T00:32:49.110Z,98068.59
2024-01-19T00:35:17.916Z,98088.25
2024-01-19T00:37:46.399Z,98083.66
2024-01-19T00:40:13.460Z,98082.16
2024-01-19T00:42:41.470Z,98090.66
2024-01-19T00:45:10.051Z,98104.84
2024-01-19T00:47:37.167Z,98116.59
2024-01-19T00:50:05.755Z,98132.53
2024-01-19T00:52:32.672Z,98121.81
2024-01-19T00:54:59.581Z,98125.56
2024-01-19T00:57:26.404Z,98142.75
2024-01-19T00:59:53.322Z,98144.66
2024-01-19T01:02:21.079Z,98140.63
2024-01-19T01:04:48.001Z,98140.19
2024-01-19T01:07:14.881Z,98145.78
2024-01-19T01:09:41.692Z,98157.19
2024-01-19T01:12:08.553Z,98161.09
2024-01-19T01:14:35.421Z,98181.31
2024-01-19T01:17:02.388Z,98186.72
2024-01-19T01:19:29.218Z,98197.78
2024-01-19T01:21:55.967Z,98209.31
2024-01-19T01:24:23.533Z,98205.81
2024-01-19T01:26:50.756Z,98211.88
2024-01-19T01:29:17.792Z,98218.41
2024-01-19T01:31:44.855Z,98215.66
2024-01-19T01:34:11.734Z,98230.25
2024-01-19T01:36:38.711Z,98220.25
2024-01-19T01:39:05.523Z,98221.88
2024-01-19T01:41:32.349Z,98218.91
2024-01-19T01:43:59.214Z,98216.13
2024-01-19T01:46:25.979Z,98214.28
2024-01-19T01:48:53.000Z,98227.94
2024-01-19T01:51:19.897Z,98223.88
2024-01-19T01:53:46.800Z,98239.59
2024-01-19T01:56:13.850Z,98243.84
2024-01-19T01:58:40.776Z,98244.66
2024-01-19T02:01:07.976Z,98249.16
2024-01-19T02:03:35.619Z,98262.22
2024-01-19T02:06:02.728Z,98264.84
2024-01-19T02:08:29.764Z,98271.56
2024-01-19T02:10:56.711Z,98280.66
2024-01-19T02:13:23.582Z,98281.97
2024-01-19T02:15:50.367Z,98270.41
2024-01-19T02:18:17.195Z,98279.66
2024-01-19T02:20:43.990Z,98287.50
2024-01-19T02:23:13.953Z,98285.25
2024-01-19T02:25:41.119Z,98282.75
2024-01-19T02:28:08.115Z,98294.38
2024-01-19T02:30:35.374Z,98293.72
2024-01-19T02:33:04.037Z,98301.41
2024-01-19T02:35:31.020Z,98308.00
2024-01-19T02:37:57.825Z,98323.59
2024-01-19T02:40:24.606Z,98322.25
2024-01-19T02:42:51.461Z,98327.28
2024-01-19T02:45:18.316Z,98338.34
2024-01-19T02:47:45.372Z,98331.91
2024-01-19T02:50:12.226Z,98320.94
2024-01-19T02:52:39.086Z,98337.44
2024-01-19T02:55:06.609Z,98329.97
2024-01-19T02:57:33.493Z,98337.41
2024-01-19T03:00:00.606Z,98350.28
2024-01-19T03:02:27.659Z,98357.97
2024-01-19T03:04:54.652Z,98370.19
2024-01-19T03:07:21.519Z,98383.31
2024-01-19T03:09:48.440Z,98370.03
2024-01-19T03:12:15.209Z,98376.72
2024-01-19T03:14:42.066Z,98375.50
2024-01-19T03:17:08.954Z,98398.28
2024-01-19T03:19:36.494Z,98402.13
2024-01-19T03:22:03.321Z,98389.91
2024-01-19T03:24:30.683Z,98406.56
2024-01-19T03:26:57.479Z,98406.22
2024-01-19T03:29:24.638Z,98413.13
2024-01-19T03:31:51.507Z,98443.41
2024-01-19T03:34:18.394Z,98436.63
2024-01-19T03:36:45.218Z,98465.13
2024-01-19T03:39:12.127Z,98466.34
2024-01-19T03:41:38.943Z,98460.25
2024-01-19T03:44:05.773Z,98456.84
2024-01-19T03:46:32.613Z,98460.84
2024-01-19T03:48:59.385Z,98453.66
2024-01-19T03:51:26.222Z,98455.47
2024-01-19T03:53:53.086Z,98458.38
2024-01-19T03:56:20.136Z,98455.66
2024-01-19T03:58:46.972Z,98468.78
2024-01-19T04:01:14.168Z,98471.38
2024-01-19T04:03:41.254Z,98481.34
2024-01-19T04:06:08.229Z,98494.63
2024-01-19T04:08:35.131Z,98504.56
2024-01-19T04:11:01.907Z,98504.28
2024-01-19T04:13:28.649Z,98510.41
2024-01-19T04:15:55.467Z,98509.47
2024-01-19T04:18:22.326Z,98507.31
2024-01-19T04:20:49.209Z,98516.47
2024-01-19T04:23:17.574Z,98511.59
2024-01-19T04:25:44.434Z,98506.00
2024-01-19T04:28:11.330Z,98501.81
2024-01-19T04:30:38.193Z,98498.78
2024-01-19T04:33:05.185Z,98506.75
2024-01-19T04:35:32.144Z,98513.78
2024-01-19T04:37:58.982Z,98521.13
2024-01-19T04:40:25.730Z,98517.75
2024-01-19T04:42:52.526Z,98513.63
2024-01-19T04:45:19.352Z,98510.41
2024-01-19T04:47:46.258Z,98520.38
2024-01-19T04:50:13.217Z,98531.53
2024-01-19T04:52:40.222Z,98529.38
2024-01-19T04:55:07.337Z,98530.28
2024-01-19T04:57:34.185Z,98534.28
2024-01-19T05:00:01.165Z,98540.69
2024-01-19T05:02:28.116Z,98536.13
2024-01-19T05:04:54.970Z,98529.06
2024-01-19T05:07:21.891Z,98533.66
2024-01-19T05:09:48.688Z,98530.16
2024-01-19T05:12:15.586Z,98528.94
2024-01-19T05:14:42.398Z,98532.13
2024-01-19T05:17:09.221Z,98539.50
2024-01-19T05:19:36.269Z,98532.44
2024-01-19T05:22:03.029Z,98541.59
2024-01-19T05:24:29.803Z,98526.31
2024-01-19T05:26:56.872Z,98530.31
2024-01-19T05:29:23.905Z,98541.47
2024-01-19T05:31:50.723Z,98531.22
2024-01-19T05:34:17.710Z,98529.06
2024-01-19T05:36:44.601Z,98529.84
2024-01-19T05:39:11.400Z,98529.38
2024-01-19T05:41:38.362Z,98556.91
2024-01-19T05:44:05.298Z,98575.88
2024-01-19T05:46:32.176Z,98592.41
2024-01-19T05:48:59.045Z,98594.88
2024-01-19T05:51:26.379Z,98608.94
2024-01-19T05:53:53.366Z,98625.91
2024-01-19T05:56:20.254Z,98645.06
2024-01-19T05:58:47.116Z,98646.44
2024-01-19T06:01:13.955Z,98648.91
2024-01-19T06:03:41.358Z,98645.69
2024-01-19T06:06:08.331Z,98659.94
2024-01-19T06:08:35.378Z,98659.75
2024-01-19T06:11:02.212Z,98667.72
2024-01-19T06:13:29.005Z,98674.63
2024-01-19T06:15:55.768Z,98672.94
2024-01-19T06:18:22.795Z,98678.63
2024-01-19T06:20:49.780Z,98679.53
2024-01-19T06:23:16.680Z,98694.84
2024-01-19T06:25:43.521Z,98702.66
2024-01-19T06:28:11.546Z,98697.44
2024-01-19T06:30:38.650Z,98695.75
2024-01-19T06:33:08.765Z,98689.47
2024-01-19T06:35:36.542Z,98692.41
2024-01-19T06:38:07.189Z,98706.03
2024-01-19T06:40:34.061Z,98706.94
2024-01-19T06:43:01.507Z,98722.50
2024-01-19T06:45:28.973Z,98732.94
2024-01-19T06:47:55.821Z,98731.34
2024-01-19T06:50:24.027Z,98745.22
2024-01-19T06:52:51.652Z,98758.84
2024-01-19T06:55:18.511Z,98768.13
2024-01-19T06:57:45.355Z,98779.66
2024-01-19T07:00:12.643Z,98784.38
2024-01-19T07:02:39.656Z,98789.94
2024-01-19T07:05:06.785Z,98791.81
2024-01-19T07:07:33.591Z,98805.75
2024-01-19T07:10:00.415Z,98811.75
2024-01-19T07:12:27.187Z,98821.25
2024-01-19T07:14:54.048Z,98817.25
2024-01-19T07:17:20.901Z,98829.03
2024-01-19T07:19:47.849Z,98829.16
2024-01-19T07:22:14.749Z,98836.84
2024-01-19T07:24:41.615Z,98840.06
2024-01-19T07:27:08.643Z,98846.38
2024-01-19T07:29:35.612Z,98845.28
2024-01-19T07:32:02.491Z,98849.09
2024-01-19T07:34:29.449Z,98852.16
2024-01-19T07:36:57.385Z,98848.78
2024-01-19T07:39:27.563Z,98848.78
2024-01-19T07:41:55.255Z,98852.63
2024-01-19T07:44:22.162Z,98851.06
2024-01-19T07:46:49.653Z,98861.09
2024-01-19T07:49:22.188Z,98859.75
2024-01-19T07:51:50.613Z,98871.09
2024-01-19T07:54:19.033Z,98874.69
2024-01-19T07:56:46.067Z,98882.88
2024-01-19T07:59:13.017Z,98892.78
2024-01-19T08:01:40.715Z,98888.31
2024-01-19T08:04:07.666Z,98884.50
2024-01-19T08:06:34.706Z,98870.63
2024-01-19T08:09:01.748Z,98877.75
2024-01-19T08:11:28.702Z,98890.38
2024-01-19T08:13:55.531Z,98879.06
2024-01-19T08:16:22.376Z,98872.50
2024-01-19T08:18:49.408Z,98863.84
2024-01-19T08:21:16.498Z,98867.25
2024-01-19T08:23:43.460Z,98861.88
2024-01-19T08:26:10.212Z,98865.91
2024-01-19T08:28:37.039Z,98865.28
2024-01-19T08:31:04.037Z,98863.91
2024-01-19T08:33:30.843Z,98866.59
2024-01-19T08:35:58.074Z,98867.28
2024-01-19T08:38:24.979Z,98887.41
2024-01-19T08:40:51.840Z,98901.25
2024-01-19T08:43:18.634Z,98918.88
2024-01-19T08:45:45.449Z,98930.97
2024-01-19T08:48:12.504Z,98940.25
2024-01-19T08:50:39.830Z,98948.19
2024-01-19T08:53:06.751Z,98955.34
2024-01-19T08:55:33.608Z,98960.97
2024-01-19T08:58:00.417Z,98961.72
2024-01-19T09:00:27.214Z,98963.97
2024-01-19T09:03:00.526Z,98963.00
2024-01-19T09:05:31.579Z,98973.03
2024-01-19T09:07:58.786Z,98968.19
2024-01-19T09:10:25.765Z,98962.19
2024-01-19T09:12:52.720Z,98954.69
2024-01-19T09:15:19.582Z,98976.72
2024-01-19T09:17:46.559Z,98983.16
2024-01-19T09:20:14.305Z,98994.06
2024-01-19T09:22:41.142Z,98997.56
2024-01-19T09:25:08.937Z,99000.41
2024-01-19T09:27:36.136Z,99006.91
2024-01-19T09:30:03.117Z,99019.38
2024-01-19T09:32:30.219Z,99021.72
2024-01-19T09:34:57.057Z,99022.28
2024-01-19T09:37:23.917Z,99030.22
2024-01-19T09:39:50.778Z,99036.63
2024-01-19T09:42:29.244Z,99037.91
2024-01-19T09:45:03.454Z,99033.03
2024-01-19T09:47:54.915Z,99028.34
2024-01-19T09:50:24.640Z,99027.81
2024-01-19T09:53:00.207Z,99045.97
2024-01-19T09:55:28.936Z,99051.66
2024-01-19T09:57:58.766Z,99041.34
2024-01-19T10:00:25.578Z,99046.41
2024-01-19T10:02:53.915Z,99040.75
2024-01-19T10:05:22.129Z,99045.28
2024-01-19T10:07:50.962Z,99051.53
2024-01-19T10:10:18.011Z,99053.66
2024-01-19T10:12:44.996Z,99054.97
2024-01-19T10:15:13.345Z,99064.69
2024-01-19T10:17:41.229Z,99070.00
2024-01-19T10:20:11.906Z,99060.53
2024-01-19T10:22:39.078Z,99058.63
2024-01-19T10:25:11.358Z,99056.25
2024-01-19T10:27:52.630Z,99057.81
2024-01-19T10:30:23.624Z,99053.91
2024-01-19T10:32:53.049Z,99054.41
2024-01-19T10:35:24.066Z,99070.16
2024-01-19T10:37:51.070Z,99073.81
2024-01-19T10:40:26.660Z,99094.16
2024-01-19T10:42:56.221Z,99101.97
2024-01-19T10:45:38.712Z,99110.75
2024-01-19T10:48:05.822Z,99119.84
2024-01-19T10:50:32.689Z,99127.66
2024-01-19T10:53:01.014Z,99140.41
2024-01-19T10:55:32.012Z,99150.88
2024-01-19T10:58:12.951Z,99157.78
2024-01-19T11:00:40.382Z,99172.25
2024-01-19T11:03:07.409Z,99186.13
2024-01-19T11:05:34.494Z,99195.47
2024-01-19T11:08:03.606Z,99195.75
2024-01-19T11:10:34.704Z,99198.06
2024-01-19T11:13:03.155Z,99216.00
2024-01-19T11:15:45.480Z,99212.91
2024-01-19T11:18:13.146Z,99214.84
2024-01-19T11:20:40.560Z,99217.75
2024-01-19T11:23:08.042Z,99224.88
2024-01-19T11:25:56.950Z,99218.78
2024-01-19T11:28:31.314Z,99222.75
2024-01-19T11:31:04.091Z,99225.22
2024-01-19T11:33:33.164Z,99225.03
2024-01-19T11:36:00.414Z,99228.97
2024-01-19T11:38:56.344Z,99237.78
2024-01-19T11:41:35.531Z,99235.84
2024-01-19T11:44:04.576Z,99243.28
2024-01-19T11:46:48.255Z,99234.28
2024-01-19T11:49:40.101Z,99230.53
2024-01-19T11:52:10.186Z,99226.16
2024-01-19T11:54:38.537Z,99234.72
2024-01-19T11:57:26.003Z,99240.63
2024-01-19T11:59:54.371Z,99249.50
2024-01-19T12:02:22.288Z,99246.53
2024-01-19T12:04:49.831Z,99252.13
2024-01-19T12:07:21.027Z,99249.06
2024-01-19T12:10:09.570Z,99254.31
2024-01-19T12:12:37.467Z,99257.31
2024-01-19T12:15:06.260Z,99269.06
2024-01-19T12:17:33.237Z,99273.09
2024-01-19T12:20:00.256Z,99280.53
2024-01-19T12:22:27.796Z,99275.75
2024-01-19T12:25:22.344Z,99270.66
2024-01-19T12:27:49.980Z,99277.28
2024-01-19T12:30:18.483Z,99294.50
2024-01-19T12:32:48.020Z,99292.84
2024-01-19T12:35:20.435Z,99283.56
2024-01-19T12:37:47.515Z,99285.69
2024-01-19T12:40:19.205Z,99276.59
2024-01-19T12:42:46.637Z,99280.75
2024-01-19T12:45:19.607Z,99286.69
2024-01-19T12:47:53.573Z,99295.69
2024-01-19T12:50:23.857Z,99298.78
2024-01-19T12:52:52.354Z,99309.56
2024-01-19T12:55:32.442Z,99321.09
2024-01-19T12:58:00.162Z,99325.81
2024-01-19T13:00:29.072Z,99340.38
2024-01-19T13:02:59.181Z,99332.09
2024-01-19T13:05:28.376Z,99333.25
2024-01-19T13:08:03.029Z,99335.78
2024-01-19T13:10:30.552Z,99335.19
2024-01-19T13:13:06.031Z,99344.94
2024-01-19T13:15:32.990Z,99352.09
2024-01-19T13:18:13.077Z,99348.00
2024-01-19T13:20:40.635Z,99360.94
2024-01-19T13:23:08.922Z,99366.59
2024-01-19T13:25:36.857Z,99371.22
2024-01-19T13:28:03.839Z,99375.72
2024-01-19T13:30:31.032Z,99374.97
2024-01-19T13:33:03.828Z,99395.19
2024-01-19T13:35:31.501Z,99398.16
2024-01-19T13:37:58.593Z,99398.22
2024-01-19T13:40:25.742Z,99404.06
2024-01-19T13:42:55.594Z,99396.41
2024-01-19T13:45:25.137Z,99409.97
2024-01-19T13:47:51.966Z,99418.25
2024-01-19T13:50:19.024Z,99416.91
2024-01-19T13:52:46.450Z,99426.13
2024-01-19T13:55:15.284Z,99427.88
2024-01-19T13:57:42.289Z,99435.19
2024-01-19T14:00:10.435Z,99450.84
2024-01-19T14:02:37.328Z,99461.13
2024-01-19T14:05:05.882Z,99455.91
2024-01-19T14:07:33.471Z,99455.53
2024-01-19T14:10:00.662Z,99460.59
2024-01-19T14:12:27.939Z,99459.03
2024-01-19T14:14:54.842Z,99460.88
2024-01-19T14:17:21.658Z,99473.81
2024-01-19T14:19:48.632Z,99475.81
2024-01-19T14:22:15.599Z,99484.72
2024-01-19T14:24:42.510Z,99487.63
2024-01-19T14:27:09.808Z,99504.06
2024-01-19T14:29:38.709Z,99511.69
2024-01-19T14:32:05.950Z,99515.88
2024-01-19T14:34:36.643Z,99512.22
2024-01-19T14:37:13.216Z,99532.88
2024-01-19T14:39:43.117Z,99533.66
2024-01-19T14:42:09.959Z,99541.22
2024-01-19T14:44:36.944Z,99537.13
2024-01-19T14:47:05.133Z,99553.47
2024-01-19T14:49:33.960Z,99557.41
2024-01-19T14:52:02.068Z,99566.13
2024-01-19T14:54:31.254Z,99579.03
2024-01-19T14:57:00.201Z,99588.63
2024-01-19T14:59:27.236Z,99583.09
2024-01-19T15:01:54.343Z,99566.75
2024-01-19T15:04:21.158Z,99587.56
2024-01-19T15:06:47.960Z,99603.31
2024-01-19T15:09:15.039Z,99596.03
2024-01-19T15:11:41.891Z,99601.03
2024-01-19T15:14:08.902Z,99592.75
2024-01-19T15:16:36.040Z,99586.91
2024-01-19T15:19:02.977Z,99589.09
2024-01-19T15:21:31.479Z,99596.63
2024-01-19T15:23:59.460Z,99615.13
2024-01-19T15:26:27.333Z,99624.56
2024-01-19T15:28:54.996Z,99634.50
2024-01-19T15:31:24.556Z,99638.16
2024-01-19T15:33:52.476Z,99647.16
2024-01-19T15:36:20.404Z,99649.84
2024-01-19T15:38:48.224Z,99660.31
2024-01-19T15:41:23.209Z,99656.66
2024-01-19T15:43:51.056Z,99657.19
2024-01-19T15:46:25.603Z,99662.63
2024-01-19T15:51:28.624Z,99676.53
2024-01-19T15:53:56.572Z,99679.13
2024-01-19T15:56:32.489Z,99688.75
2024-01-19T15:59:04.291Z,99684.31
2024-01-19T16:01:31.229Z,99686.19
2024-01-19T16:03:59.633Z,99695.50
2024-01-19T16:06:27.481Z,99704.91
2024-01-19T16:08:54.381Z,99704.63
2024-01-19T16:11:21.431Z,99718.97
2024-01-19T16:13:48.715Z,99722.06
2024-01-19T16:16:17.886Z,99731.69
2024-01-19T16:18:46.268Z,99745.75
2024-01-19T16:21:18.255Z,99758.50
2024-01-19T16:23:45.213Z,99761.09
2024-01-19T16:26:12.413Z,99758.31
2024-01-19T16:28:39.583Z,99761.44
2024-01-19T16:31:06.508Z,99764.09
2024-01-19T16:33:33.935Z,99774.03
2024-01-19T16:36:01.107Z,99775.44
2024-01-19T16:38:31.922Z,99781.19
2024-01-19T16:40:59.982Z,99782.19
2024-01-19T16:43:28.018Z,99785.56
2024-01-19T16:45:56.023Z,99781.88
2024-01-19T16:48:23.974Z,99776.94
2024-01-19T16:50:52.132Z,99781.91
2024-01-19T16:53:19.682Z,99780.91
2024-01-19T16:55:47.623Z,99783.38
2024-01-19T16:58:18.607Z,99776.28
2024-01-19T17:00:46.072Z,99774.81
2024-01-19T17:03:15.885Z,99781.03
2024-01-19T17:05:43.976Z,99797.06
2024-01-19T17:08:13.937Z,99795.84
2024-01-19T17:10:41.990Z,99808.69
2024-01-19T17:13:09.727Z,99816.03
2024-01-19T17:15:36.829Z,99813.47
2024-01-19T17:18:04.153Z,99826.06
2024-01-19T17:20:31.358Z,99825.78
2024-01-19T17:22:58.668Z,99826.06
2024-01-19T17:25:25.998Z,99823.72
2024-01-19T17:27:52.963Z,99831.97
2024-01-19T17:30:22.667Z,99830.38
2024-01-19T17:32:49.874Z,99841.78
2024-01-19T17:35:17.050Z,99844.88
2024-01-19T17:37:44.190Z,99860.66
2024-01-19T17:40:11.583Z,99861.38
2024-01-19T17:42:38.466Z,99874.91
2024-01-19T17:45:15.976Z,99875.91
2024-01-19T17:47:53.577Z,99884.78
2024-01-19T17:50:24.455Z,99897.28
2024-01-19T17:52:52.405Z,99901.09
2024-01-19T17:55:19.365Z,99905.69
2024-01-19T17:57:49.390Z,99916.88
2024-01-19T18:00:17.398Z,99929.91
2024-01-19T18:02:44.508Z,99937.47
2024-01-19T18:05:11.497Z,99952.00
2024-01-19T18:07:39.030Z,99946.56
2024-01-19T18:10:06.605Z,99953.88
2024-01-19T18:12:33.395Z,99961.97
2024-01-19T18:15:00.841Z,99974.16
2024-01-19T18:17:27.844Z,99993.63
2024-01-19T18:19:54.831Z,99993.63
2024-01-19T18:22:21.762Z,99997.81
2024-01-19T18:24:48.744Z,100009.53
2024-01-19T18:27:16.130Z,99999.41
2024-01-19T18:29:44.142Z,100015.56
2024-01-19T18:32:13.948Z,100010.09
2024-01-19T18:34:41.135Z,100013.75
2024-01-19T18:37:08.014Z,100011.16
2024-01-19T18:39:34.878Z,100010.91
2024-01-19T18:42:01.684Z,100011.94
2024-01-19T18:44:30.582Z,100015.31
2024-01-19T18:46:57.485Z,100021.78
2024-01-19T18:49:24.533Z,100022.84
2024-01-19T18:51:51.752Z,100023.31
2024-01-19T18:54:19.595Z,100019.69
2024-01-19T18:56:46.647Z,100022.53
2024-01-19T18:59:15.534Z,100016.50
2024-01-19T19:01:43.282Z,100020.16
2024-01-19T19:04:11.452Z,100035.94
2024-01-19T19:06:38.743Z,100034.88
2024-01-19T19:09:06.960Z,100035.38
2024-01-19T19:11:34.078Z,100051.13
2024-01-19T19:14:01.603Z,100042.03
2024-01-19T19:16:36.977Z,100046.97
2024-01-19T19:19:13.964Z,100044.41
2024-01-19T19:21:41.140Z,100051.34
2024-01-19T19:24:08.150Z,100053.97
2024-01-19T19:26:35.061Z,100050.81
2024-01-19T19:29:03.328Z,100059.34
2024-01-19T19:31:30.180Z,100075.63
2024-01-19T19:33:57.098Z,100075.34
2024-01-19T19:36:23.913Z,100080.41
2024-01-19T19:38:50.823Z,100083.03
2024-01-19T19:41:19.441Z,100092.28
2024-01-19T19:43:46.343Z,100087.66
2024-01-19T19:46:15.997Z,100094.84
2024-01-19T19:48:43.155Z,100103.63
2024-01-19T19:51:10.048Z,100097.41
2024-01-19T19:53:38.380Z,100106.19
2024-01-19T19:56:05.335Z,100111.63
2024-01-19T19:58:32.154Z,100106.72
2024-01-19T20:01:02.154Z,100116.25
2024-01-19T20:03:29.511Z,100122.72
2024-01-19T20:05:56.679Z,100115.69
2024-01-19T20:08:25.167Z,100129.84
2024-01-19T20:10:52.547Z,100133.97
2024-01-19T20:13:19.601Z,100139.13
2024-01-19T20:15:46.502Z,100150.94
2024-01-19T20:18:13.868Z,100154.06
2024-01-19T20:20:41.228Z,100161.13
2024-01-19T20:23:08.934Z,100159.97
2024-01-19T20:25:36.744Z,100158.75
2024-01-19T20:28:03.946Z,100164.75
2024-01-19T20:30:31.017Z,100164.44
2024-01-19T20:32:58.577Z,100168.47
2024-01-19T20:35:25.452Z,100175.25
2024-01-19T20:37:55.487Z,100180.16
2024-01-19T20:40:23.385Z,100178.22
2024-01-19T20:42:50.292Z,100177.50
2024-01-19T20:45:17.203Z,100180.75
2024-01-19T20:47:44.170Z,100181.03
2024-01-19T20:50:11.947Z,100181.03
2024-01-19T20:52:39.507Z,100180.66
2024-01-19T20:55:07.029Z,100196.34
2024-01-19T20:57:33.912Z,100200.50
2024-01-19T21:00:00.874Z,100207.47
2024-01-19T21:02:27.775Z,100216.03
2024-01-19T21:04:55.057Z,100220.91
2024-01-19T21:07:22.525Z,100218.88
2024-01-19T21:09:49.742Z,100227.09
2024-01-19T21:12:17.110Z,100224.28
2024-01-19T21:14:44.553Z,100233.63
2024-01-19T21:17:12.230Z,100227.38
2024-01-19T21:19:39.283Z,100236.75
2024-01-19T21:22:07.216Z,100233.63
2024-01-19T21:24:34.792Z,100239.28
2024-01-19T21:27:02.272Z,100240.31
2024-01-19T21:29:29.189Z,100235.00
2024-01-19T21:31:56.110Z,100239.75
2024-01-19T21:34:22.996Z,100239.59
2024-01-19T21:36:49.806Z,100238.59
2024-01-19T21:39:16.705Z,100240.97
2024-01-19T21:41:48.556Z,100228.44
2024-01-19T21:44:16.309Z,100237.31
2024-01-19T21:46:46.205Z,100234.75
2024-01-19T21:49:13.162Z,100238.72
2024-01-19T21:51:39.968Z,100240.56
2024-01-19T21:54:06.886Z,100231.84
2024-01-19T21:56:34.423Z,100232.28
2024-01-19T21:59:01.336Z,100215.69
2024-01-19T22:01:28.254Z,100208.78
2024-01-19T22:03:55.378Z,100215.09
2024-01-19T22:06:22.370Z,100217.44
2024-01-19T22:08:49.499Z,100217.75
2024-01-19T22:11:17.259Z,100222.16
2024-01-19T22:13:44.346Z,100230.84
2024-01-19T22:16:11.412Z,100236.19
2024-01-19T22:18:38.556Z,100242.44
2024-01-19T22:21:06.162Z,100247.56
2024-01-19T22:23:34.899Z,100254.56
2024-01-19T22:26:01.826Z,100256.22
2024-01-19T22:28:34.902Z,100274.50
2024-01-19T22:31:02.672Z,100275.28
2024-01-19T22:33:30.103Z,100279.91
2024-01-19T22:36:04.025Z,100279.59
2024-01-19T22:38:37.773Z,100281.34
2024-01-19T22:41:04.847Z,100295.00
2024-01-19T22:43:31.845Z,100293.16
2024-01-19T22:45:58.781Z,100299.84
2024-01-19T22:48:25.793Z,100312.19
2024-01-19T22:50:52.827Z,100313.88
2024-01-19T22:53:19.972Z,100317.91
2024-01-19T22:55:47.013Z,100326.38
2024-01-19T22:58:13.974Z,100323.19
2024-01-19T23:00:41.131Z,100330.16
2024-01-19T23:03:08.013Z,100336.38
2024-01-19T23:05:35.150Z,100329.88
2024-01-19T23:08:02.164Z,100334.44
2024-01-19T23:10:29.066Z,100344.00
2024-01-19T23:12:57.183Z,100342.00
2024-01-19T23:15:24.093Z,100339.94
2024-01-19T23:17:51.015Z,100347.66
2024-01-19T23:20:18.044Z,100348.34
2024-01-19T23:22:45.014Z,100356.91
2024-01-19T23:25:19.307Z,100349.53
2024-01-19T23:27:50.271Z,100354.31
2024-01-19T23:30:17.675Z,100355.63
2024-01-19T23:32:44.638Z,100352.03
2024-01-19T23:35:11.616Z,100344.97
2024-01-19T23:37:39.550Z,100346.25
2024-01-19T23:40:07.243Z,100348.28
2024-01-19T23:42:34.358Z,100337.94
2024-01-19T23:45:01.899Z,100340.59
2024-01-19T23:47:28.997Z,100342.31
2024-01-19T23:49:56.189Z,100339.19
2024-01-19T23:52:23.058Z,100341.22
2024-01-19T23:54:50.151Z,100348.66
2024-01-19T23:57:16.989Z,100354.91
2024-01-19T23:59:44.184Z,100365.78
